Terminal Aerodrome Forecast
Issued by NWS Springfield, MO

Home | Current Version | Previous Version | Text Only | Print | Product List | Glossary On
Versions: 1 2 3 4 5 6 7 8 9 10 11 12 13 14 15 16 17
000
FTUS43 KSGF 150542 CCA
TAFSGF
TAF COR
KSGF 150542Z 1506/1606 20008KT P6SM -SHRA VCTS OVC045CB
      WS020/27030KT
      TEMPO 1506/1507 28015G25KT 4SM RA BKN035
     FM150700 34012G24KT P6SM -SHRA VCTS OVC015CB
      TEMPO 1509/1511 4SM TSRA OVC007CB
     FM151100 33011G24KT P6SM VCTS BKN040CB
     FM151300 33011G24KT P6SM SCT045
     FM160000 33005KT P6SM SKC=

USA.gov is the U.S. government's official web portal to all federal, state and local government web resources and services.